Time;durP1;ratioP1;P1;durP2;ratioP2;P2;SDS_P1;SDS_P2;PMS_P1;PMS_P2;Temp;Humidity;BMP_temperature;BMP_pressure;BME280_temperature;BME280_humidity;BME280_pressure;Samples;Min_cycle;Max_cycle;Signal;HPM_P1;HPM_P2
2022/02/21 00:02:07;;;;;;;;;;;;;;;13.37;41.15;98733.31;4421336;32;19957;-72
2022/02/21 00:04:33;;;;;;;;;;;;;;;13.45;40.55;98740.84;4423400;32;19989;-72
2022/02/21 00:06:59;;;;;;;;;;;;;;;13.32;40.87;98734.09;4416465;32;19977;-72
2022/02/21 00:09:24;;;;;;;;;;;;;;;13.13;41.10;98738.59;4420322;32;19993;-70
2022/02/21 00:11:50;;;;;;;;;;;;;;;12.79;41.85;98746.00;4422758;32;20421;-70
2022/02/21 00:14:15;;;;;;;;;;;;;;;12.98;41.29;98727.41;4421969;32;20652;-70
2022/02/21 00:16:41;;;;;;;;;;;;;;;12.47;41.78;98749.31;4409016;32;19981;-70
2022/02/21 00:19:08;;;;;;;;;;;;;;;12.33;41.61;98716.41;4419585;32;19988;-70
2022/02/21 00:21:34;;;;;;;;;;;;;;;12.80;41.34;98716.53;4423630;32;19961;-70
2022/02/21 00:23:59;;;;;;;;;;;;;;;13.38;40.34;98734.88;4420700;32;20004;-70
2022/02/21 00:26:25;;;;;;;;;;;;;;;12.85;40.31;98727.06;4422269;32;20015;-70
2022/02/21 00:28:50;;;;;;;;;;;;;;;13.19;40.45;98750.69;4417339;32;20032;-70
2022/02/21 00:31:16;;;;;;;;;;;;;;;13.65;39.96;98763.28;4420570;32;19989;-70
2022/02/21 00:33:42;;;;;;;;;;;;;;;13.61;40.53;98753.47;4420785;32;19965;-69
2022/02/21 00:36:07;;;;;;;;;;;;;;;14.00;40.35;98752.34;4423887;32;20121;-70
2022/02/21 00:38:33;;;;;;;;;;;;;;;13.83;40.87;98751.53;4420529;32;20308;-70
2022/02/21 00:40:59;;;;;;;;;;;;;;;13.80;40.80;98772.34;4420957;32;20036;-70
2022/02/21 00:43:25;;;;;;;;;;;;;;;13.76;41.37;98754.06;4422415;32;19957;-70
2022/02/21 00:45:50;;;;;;;;;;;;;;;13.50;42.22;98759.84;4417478;32;20034;-70
2022/02/21 00:48:16;;;;;;;;;;;;;;;13.43;42.06;98766.00;4421128;32;19952;-70
2022/02/21 00:50:42;;;;;;;;;;;;;;;13.08;41.87;98750.63;4423839;32;19992;-70
2022/02/21 00:53:10;;;;;;;;;;;;;;;13.13;41.95;98747.81;4421375;32;20045;-70
2022/02/21 00:55:35;;;;;;;;;;;;;;;13.22;41.66;98746.84;4420646;32;20607;-70
2022/02/21 00:58:02;;;;;;;;;;;;;;;13.83;40.85;98743.03;4419093;32;20924;-70
2022/02/21 01:00:28;;;;;;;;;;;;;;;13.32;41.57;98743.31;4423654;32;19989;-70
2022/02/21 01:02:54;;;;;;;;;;;;;;;13.32;41.13;98748.22;4422973;32;20351;-70
2022/02/21 01:05:19;;;;;;;;;;;;;;;12.93;41.57;98755.62;4419871;32;19993;-70
2022/02/21 01:07:45;;;;;;;;;;;;;;;13.24;40.88;98747.91;4422046;32;19972;-69
2022/02/21 01:10:11;;;;;;;;;;;;;;;13.20;41.36;98741.69;4421773;32;19980;-70
2022/02/21 01:12:37;;;;;;;;;;;;;;;13.82;39.89;98758.47;4422393;32;19979;-70
2022/02/21 01:15:04;;;;;;;;;;;;;;;13.48;40.49;98739.81;4423390;32;19954;-70
2022/02/21 01:17:30;;;;;;;;;;;;;;;13.82;39.95;98730.19;4414507;32;21640;-70
2022/02/21 01:19:55;;;;;;;;;;;;;;;13.19;40.65;98751.47;4418425;32;19968;-71
2022/02/21 01:22:21;;;;;;;;;;;;;;;13.03;40.76;98738.00;4418408;32;20372;-72
2022/02/21 01:24:47;;;;;;;;;;;;;;;13.13;40.63;98758.37;4414246;32;20012;-71
2022/02/21 01:27:14;;;;;;;;;;;;;;;13.34;40.63;98757.72;4416115;32;19957;-70
2022/02/21 01:29:40;;;;;;;;;;;;;;;13.47;41.02;98766.50;4418039;32;19986;-70
2022/02/21 01:32:07;;;;;;;;;;;;;;;13.35;40.47;98776.19;4416435;32;20392;-70
2022/02/21 01:34:32;;;;;;;;;;;;;;;13.66;40.00;98764.81;4418970;32;20223;-71
2022/02/21 01:36:58;;;;;;;;;;;;;;;13.50;40.83;98725.94;4415999;32;19985;-70
2022/02/21 01:39:24;;;;;;;;;;;;;;;13.42;40.33;98789.87;4417271;32;20276;-70
2022/02/21 01:41:49;;;;;;;;;;;;;;;13.86;39.92;98795.75;4418181;32;20001;-70
2022/02/21 01:44:16;;;;;;;;;;;;;;;13.59;40.38;98768.13;4414178;32;20754;-71
2022/02/21 01:46:42;;;;;;;;;;;;;;;13.61;40.57;98791.00;4415363;32;20024;-71
2022/02/21 01:49:10;;;;;;;;;;;;;;;13.34;40.60;98785.19;4418421;32;19972;-71
2022/02/21 01:51:36;;;;;;;;;;;;;;;13.82;40.00;98789.56;4416615;32;20009;-71
2022/02/21 01:54:04;;;;;;;;;;;;;;;13.23;40.34;98762.53;4416849;32;19949;-71
2022/02/21 01:56:30;;;;;;;;;;;;;;;13.27;39.82;98761.03;4416351;32;19985;-71
2022/02/21 01:58:55;;;;;;;;;;;;;;;13.86;39.16;98759.00;4415382;32;19972;-71
2022/02/21 02:01:21;;;;;;;;;;;;;;;14.02;38.96;98741.31;4414904;32;20640;-71
2022/02/21 02:03:47;;;;;;;;;;;;;;;14.15;38.47;98732.34;4417092;32;19953;-71
2022/02/21 02:06:13;;;;;;;;;;;;;;;13.30;39.26;98757.19;4414225;32;20245;-71
2022/02/21 02:08:39;;;;;;;;;;;;;;;13.56;38.68;98735.22;4413577;32;20405;-71
2022/02/21 02:11:05;;;;;;;;;;;;;;;14.00;37.91;98763.66;4404317;32;20008;-71
2022/02/21 02:13:30;;;;;;;;;;;;;;;14.40;37.41;98717.25;4417403;32;20008;-71
2022/02/21 02:15:56;;;;;;;;;;;;;;;14.05;38.04;98705.56;4415024;32;19961;-71
2022/02/21 02:18:21;;;;;;;;;;;;;;;14.08;37.76;98710.97;4414374;32;19964;-71
2022/02/21 02:20:47;;;;;;;;;;;;;;;13.82;38.00;98726.59;4414953;32;19994;-71
2022/02/21 02:23:13;;;;;;;;;;;;;;;13.78;37.89;98732.47;4417244;32;19950;-70
2022/02/21 02:25:39;;;;;;;;;;;;;;;14.12;37.83;98721.28;4421442;32;19996;-70
2022/02/21 02:28:05;;;;;;;;;;;;;;;14.17;37.66;98714.88;4417758;32;20180;-70
2022/02/21 02:30:31;;;;;;;;;;;;;;;13.89;38.57;98686.50;4419907;32;19950;-70
2022/02/21 02:32:57;;;;;;;;;;;;;;;14.18;37.78;98696.59;4419581;32;19980;-69
2022/02/21 02:35:23;;;;;;;;;;;;;;;13.39;38.30;98702.53;4419058;32;20375;-69
2022/02/21 02:37:48;;;;;;;;;;;;;;;13.96;38.13;98683.97;4419313;32;20032;-70
2022/02/21 02:40:15;;;;;;;;;;;;;;;13.97;38.13;98677.00;4421046;32;19993;-70
2022/02/21 02:42:41;;;;;;;;;;;;;;;14.24;37.82;98681.22;4416963;32;19954;-70
2022/02/21 02:45:06;;;;;;;;;;;;;;;13.01;39.43;98669.97;4420794;32;20484;-71
2022/02/21 02:47:32;;;;;;;;;;;;;;;13.43;39.21;98647.31;4416143;32;20225;-71
2022/02/21 02:49:57;;;;;;;;;;;;;;;13.62;38.78;98645.59;4417115;32;19957;-70
2022/02/21 02:52:23;;;;;;;;;;;;;;;13.36;39.76;98656.28;4417982;32;20791;-71
2022/02/21 02:54:48;;;;;;;;;;;;;;;14.04;39.18;98631.28;4418314;32;20350;-70
2022/02/21 02:57:14;;;;;;;;;;;;;;;13.36;40.06;98636.53;4420380;32;19993;-70
2022/02/21 02:59:40;;;;;;;;;;;;;;;13.41;40.46;98601.84;4418769;32;20004;-70
2022/02/21 03:02:05;;;;;;;;;;;;;;;12.98;40.83;98617.31;4419465;32;20391;-70
2022/02/21 03:04:30;;;;;;;;;;;;;;;13.32;40.71;98582.31;4419550;32;19958;-70
2022/02/21 03:06:58;;;;;;;;;;;;;;;12.91;41.21;98633.94;4417104;32;19977;-70
2022/02/21 03:09:26;;;;;;;;;;;;;;;13.24;41.22;98598.22;4417065;32;20000;-70
2022/02/21 03:11:52;;;;;;;;;;;;;;;13.43;41.74;98607.00;4418968;32;19957;-69
2022/02/21 03:14:18;;;;;;;;;;;;;;;13.12;41.91;98601.50;4417285;32;20224;-70
2022/02/21 03:16:48;;;;;;;;;;;;;;;13.19;42.84;98570.72;4417339;32;20001;-71
2022/02/21 03:19:13;;;;;;;;;;;;;;;12.82;44.33;98603.12;4417342;32;19949;-71
2022/02/21 03:21:40;;;;;;;;;;;;;;;12.69;44.44;98606.37;4419164;32;20004;-70
2022/02/21 03:24:05;;;;;;;;;;;;;;;12.86;44.66;98573.38;4418646;32;19976;-71
2022/02/21 03:26:31;;;;;;;;;;;;;;;13.21;44.30;98571.00;4417075;32;21054;-71
2022/02/21 03:28:56;;;;;;;;;;;;;;;12.90;44.80;98579.56;4416277;32;19990;-71
2022/02/21 03:31:22;;;;;;;;;;;;;;;12.69;44.97;98549.94;4418900;32;19987;-71
2022/02/21 03:33:48;;;;;;;;;;;;;;;13.09;43.94;98544.00;4418060;32;19999;-71
2022/02/21 03:36:13;;;;;;;;;;;;;;;12.69;44.61;98549.94;4415143;32;19997;-71
2022/02/21 03:38:39;;;;;;;;;;;;;;;13.23;43.83;98537.34;4416879;32;20007;-71
2022/02/21 03:41:05;;;;;;;;;;;;;;;13.00;43.63;98547.03;4414913;32;19980;-71
2022/02/21 03:43:30;;;;;;;;;;;;;;;13.24;43.69;98550.19;4416864;32;19958;-71
2022/02/21 03:45:56;;;;;;;;;;;;;;;13.41;43.21;98528.41;4418206;32;19968;-71
2022/02/21 03:48:21;;;;;;;;;;;;;;;13.37;43.43;98542.00;4418924;32;20005;-71
2022/02/21 03:50:48;;;;;;;;;;;;;;;13.57;43.01;98546.69;4418044;32;19965;-71
2022/02/21 03:53:13;;;;;;;;;;;;;;;13.27;43.40;98525.81;4413778;32;20083;-71
2022/02/21 03:55:38;;;;;;;;;;;;;;;12.76;43.60;98531.78;4416832;32;19997;-71
2022/02/21 03:58:05;;;;;;;;;;;;;;;13.10;43.44;98516.53;4417822;32;20393;-71
2022/02/21 04:00:31;;;;;;;;;;;;;;;13.58;42.49;98500.94;4416857;32;19957;-72
2022/02/21 04:02:56;;;;;;;;;;;;;;;13.20;42.94;98486.78;4418148;32;20382;-72
2022/02/21 04:05:22;;;;;;;;;;;;;;;13.37;42.81;98487.56;4417189;32;19957;-71
2022/02/21 04:07:48;;;;;;;;;;;;;;;12.80;43.16;98506.91;4415408;32;20001;-71
2022/02/21 04:10:14;;;;;;;;;;;;;;;13.15;43.65;98479.84;4415232;32;19945;-71
2022/02/21 04:12:49;;;;;;;;;;;;;;;12.91;44.06;98499.25;4417949;32;20049;-70
2022/02/21 04:15:25;;;;;;;;;;;;;;;13.20;44.08;98492.44;4421341;32;19954;-70
2022/02/21 04:17:51;;;;;;;;;;;;;;;13.23;43.90;98472.38;4418420;32;20004;-72
2022/02/21 04:20:17;;;;;;;;;;;;;;;13.08;44.09;98485.22;4416719;32;20641;-71
2022/02/21 04:22:43;;;;;;;;;;;;;;;13.15;43.96;98496.00;4414794;32;19964;-71
2022/02/21 04:25:10;;;;;;;;;;;;;;;13.34;43.98;98475.25;4418276;32;20405;-70
2022/02/21 04:27:39;;;;;;;;;;;;;;;13.11;44.05;98496.25;4418704;32;20005;-70
2022/02/21 04:30:05;;;;;;;;;;;;;;;13.51;43.79;98495.81;4416642;32;19995;-71
2022/02/21 04:32:30;;;;;;;;;;;;;;;13.93;43.47;98494.78;4414890;32;20331;-71
2022/02/21 04:34:57;;;;;;;;;;;;;;;13.78;43.32;98486.56;4413827;32;20021;-70
2022/02/21 04:37:23;;;;;;;;;;;;;;;13.43;44.78;98471.38;4418521;32;20120;-71
2022/02/21 04:39:49;;;;;;;;;;;;;;;13.74;43.71;98471.13;4417584;32;19989;-71
2022/02/21 04:42:14;;;;;;;;;;;;;;;13.84;43.01;98461.87;4419573;32;20018;-71
2022/02/21 04:44:40;;;;;;;;;;;;;;;14.02;42.84;98449.25;4417385;32;19969;-71
2022/02/21 04:47:05;;;;;;;;;;;;;;;13.71;43.72;98486.28;4417562;32;20571;-71
2022/02/21 04:49:31;;;;;;;;;;;;;;;13.96;43.61;98449.28;4416840;32;19965;-71
2022/02/21 04:51:57;;;;;;;;;;;;;;;14.37;43.12;98468.50;4417577;32;20046;-71
2022/02/21 04:54:23;;;;;;;;;;;;;;;13.97;43.73;98467.03;4419289;32;20381;-71
2022/02/21 04:56:49;;;;;;;;;;;;;;;13.88;44.21;98458.81;4417564;32;20067;-70
2022/02/21 04:59:14;;;;;;;;;;;;;;;14.26;43.72;98449.50;4415998;32;19953;-70
2022/02/21 05:01:40;;;;;;;;;;;;;;;14.07;43.79;98451.31;4416728;32;20009;-69
2022/02/21 05:04:06;;;;;;;;;;;;;;;13.38;45.14;98475.75;4421075;32;19950;-72
2022/02/21 05:06:31;;;;;;;;;;;;;;;13.77;44.18;98478.59;4413347;32;20001;-72
2022/02/21 05:08:58;;;;;;;;;;;;;;;13.81;44.55;98453.69;4413939;32;19949;-73
2022/02/21 05:11:23;;;;;;;;;;;;;;;13.87;44.06;98455.19;4417621;32;20008;-73
2022/02/21 05:13:49;;;;;;;;;;;;;;;13.82;44.78;98447.50;4402925;32;20264;-73
2022/02/21 05:16:14;;;;;;;;;;;;;;;13.55;45.25;98468.06;4415763;32;19958;-73
2022/02/21 05:18:41;;;;;;;;;;;;;;;14.40;43.78;98473.91;4417472;32;19976;-72
2022/02/21 05:21:07;;;;;;;;;;;;;;;13.78;45.19;98478.06;4419552;32;19993;-72
2022/02/21 05:23:33;;;;;;;;;;;;;;;14.22;45.41;98453.84;4417239;32;20330;-71
2022/02/21 05:26:02;;;;;;;;;;;;;;;13.89;45.55;98444.16;4416274;32;20002;-71
2022/02/21 05:28:27;;;;;;;;;;;;;;;13.68;45.79;98479.63;4414550;32;19950;-72
2022/02/21 05:30:54;;;;;;;;;;;;;;;14.33;45.17;98420.66;4416756;32;19953;-73
2022/02/21 05:33:20;;;;;;;;;;;;;;;14.61;44.89;98429.06;4416120;32;20013;-72
2022/02/21 05:35:46;;;;;;;;;;;;;;;14.07;45.57;98452.09;4418864;32;20069;-71
2022/02/21 05:38:11;;;;;;;;;;;;;;;14.18;46.02;98437.16;4416222;32;19957;-72
2022/02/21 05:40:37;;;;;;;;;;;;;;;14.89;44.26;98432.50;4416468;32;19966;-72
2022/02/21 05:43:03;;;;;;;;;;;;;;;13.97;46.08;98425.34;4415258;32;19996;-72
2022/02/21 05:45:28;;;;;;;;;;;;;;;14.12;46.00;98442.06;4417513;32;20064;-72
2022/02/21 05:47:54;;;;;;;;;;;;;;;14.52;46.12;98415.97;4416569;32;19962;-71
2022/02/21 05:50:20;;;;;;;;;;;;;;;13.78;46.87;98417.97;4416809;32;20079;-71
2022/02/21 05:52:46;;;;;;;;;;;;;;;14.07;46.24;98417.38;4408171;32;19954;-71
2022/02/21 05:55:11;;;;;;;;;;;;;;;14.03;46.50;98403.50;4417145;32;19993;-71
2022/02/21 05:57:37;;;;;;;;;;;;;;;14.64;45.54;98386.34;4417339;32;19968;-72
2022/02/21 06:00:04;;;;;;;;;;;;;;;14.15;46.17;98421.22;4408419;32;19988;-71
2022/02/21 06:02:30;;;;;;;;;;;;;;;14.33;46.41;98406.50;4420779;32;20039;-70
2022/02/21 06:04:55;;;;;;;;;;;;;;;13.79;46.80;98414.63;4422157;32;20005;-70
2022/02/21 06:07:21;;;;;;;;;;;;;;;14.57;45.77;98437.06;4418166;32;19949;-71
2022/02/21 06:09:46;;;;;;;;;;;;;;;14.31;46.75;98426.09;4420369;32;19961;-72
2022/02/21 06:12:12;;;;;;;;;;;;;;;14.09;46.70;98497.56;4409354;32;19968;-73
2022/02/21 06:14:38;;;;;;;;;;;;;;;14.32;46.69;98416.28;4424488;32;20440;-72
2022/02/21 06:17:04;;;;;;;;;;;;;;;14.07;47.05;98431.53;4420931;32;19971;-71
2022/02/21 06:19:30;;;;;;;;;;;;;;;14.50;46.59;98386.63;4420007;32;20371;-71
2022/02/21 06:21:57;;;;;;;;;;;;;;;14.75;46.06;98379.81;4421234;32;19949;-71
2022/02/21 06:24:24;;;;;;;;;;;;;;;14.25;46.44;98377.25;4418169;32;21504;-71
2022/02/21 06:26:49;;;;;;;;;;;;;;;15.12;45.23;98408.41;4419345;32;20005;-71
2022/02/21 06:29:15;;;;;;;;;;;;;;;14.72;46.13;98404.28;4419349;32;20050;-70
2022/02/21 06:31:40;;;;;;;;;;;;;;;14.82;46.25;98396.25;4420647;32;20231;-70
2022/02/21 06:34:07;;;;;;;;;;;;;;;14.30;47.33;98387.75;4423835;32;20377;-70
2022/02/21 06:36:33;;;;;;;;;;;;;;;14.32;47.80;98399.31;4421292;32;19971;-71
2022/02/21 06:38:58;;;;;;;;;;;;;;;14.56;47.03;98435.50;4417122;32;19950;-72
2022/02/21 06:41:24;;;;;;;;;;;;;;;15.02;46.38;98415.69;4417453;32;20015;-71
2022/02/21 06:43:50;;;;;;;;;;;;;;;14.77;46.27;98391.41;4421451;32;20006;-72
2022/02/21 06:46:15;;;;;;;;;;;;;;;14.56;47.16;98410.81;4419022;32;20362;-72
2022/02/21 06:48:41;;;;;;;;;;;;;;;15.37;45.94;98410.09;4418397;32;20118;-71
2022/02/21 06:51:07;;;;;;;;;;;;;;;15.52;45.45;98418.94;4423216;32;20024;-71
2022/02/21 06:53:32;;;;;;;;;;;;;;;15.36;46.13;98423.44;4417651;32;20086;-72
2022/02/21 06:55:58;;;;;;;;;;;;;;;15.21;45.86;98423.03;4419233;32;20320;-71
2022/02/21 06:58:23;;;;;;;;;;;;;;;14.46;47.42;98426.53;4420791;32;19953;-70
2022/02/21 07:00:49;;;;;;;;;;;;;;;15.09;46.74;98398.91;4419557;32;20001;-71
2022/02/21 07:03:14;;;;;;;;;;;;;;;14.64;47.46;98487.44;4418959;32;20016;-71
2022/02/21 07:05:40;;;;;;;;;;;;;;;15.02;47.93;98427.81;4420695;32;19953;-71
2022/02/21 07:08:06;;;;;;;;;;;;;;;15.35;46.80;98421.91;4416532;32;20005;-71
2022/02/21 07:10:32;;;;;;;;;;;;;;;15.29;46.92;98418.34;4421751;32;20003;-71
2022/02/21 07:12:58;;;;;;;;;;;;;;;15.32;46.31;98422.19;4424723;32;20028;-70
2022/02/21 07:15:24;;;;;;;;;;;;;;;15.08;47.00;98462.53;4424053;32;20012;-71
2022/02/21 07:17:49;;;;;;;;;;;;;;;15.40;46.41;98474.22;4419492;32;19946;-73
2022/02/21 07:20:15;;;;;;;;;;;;;;;15.46;46.39;98469.25;4422639;32;20019;-72
2022/02/21 07:22:42;;;;;;;;;;;;;;;15.33;46.74;98446.37;4424311;32;20311;-72
2022/02/21 07:25:09;;;;;;;;;;;;;;;15.07;47.55;98463.81;4421886;32;19945;-72
2022/02/21 07:27:43;;;;;;;;;;;;;;;15.53;46.53;98519.72;4425785;32;19965;-71
2022/02/21 07:30:09;;;;;;;;;;;;;;;15.64;46.99;98539.47;4430167;32;19957;-71
2022/02/21 07:32:35;;;;;;;;;;;;;;;15.49;46.70;98531.31;4428960;32;19962;-71
2022/02/21 07:35:00;;;;;;;;;;;;;;;15.30;46.60;98533.22;4427119;32;22188;-71
2022/02/21 07:37:26;;;;;;;;;;;;;;;15.39;46.28;98558.44;4404599;32;19972;-71
2022/02/21 07:39:52;;;;;;;;;;;;;;;15.45;46.25;98555.56;4418806;32;20001;-72
2022/02/21 07:42:18;;;;;;;;;;;;;;;15.75;46.19;98551.53;4410029;32;19964;-71
2022/02/21 07:44:44;;;;;;;;;;;;;;;15.93;46.01;98558.59;4416482;32;20445;-70
2022/02/21 07:47:10;;;;;;;;;;;;;;;16.01;45.82;98559.56;4415445;32;20050;-70
2022/02/21 07:49:35;;;;;;;;;;;;;;;15.83;46.40;98634.72;4419630;32;20433;-71
2022/02/21 07:52:01;;;;;;;;;;;;;;;16.20;45.72;98607.91;4414611;32;19953;-70
2022/02/21 07:54:27;;;;;;;;;;;;;;;15.86;46.07;98628.00;4421027;32;20248;-71
2022/02/21 07:56:53;;;;;;;;;;;;;;;16.35;44.80;98631.75;4402890;32;20012;-71
2022/02/21 07:59:19;;;;;;;;;;;;;;;16.21;44.23;98627.25;4417607;32;20054;-72
2022/02/21 08:01:44;;;;;;;;;;;;;;;15.41;45.96;98657.88;4417505;32;20399;-72
2022/02/21 08:04:10;;;;;;;;;;;;;;;15.66;45.88;98675.81;4413548;32;19976;-72
2022/02/21 08:06:35;;;;;;;;;;;;;;;15.98;45.15;98708.91;4411013;32;20041;-72
2022/02/21 08:09:01;;;;;;;;;;;;;;;16.21;44.65;98720.13;4414877;32;20026;-72
2022/02/21 08:11:26;;;;;;;;;;;;;;;16.31;44.85;98704.31;4413989;32;20429;-72
2022/02/21 08:13:54;;;;;;;;;;;;;;;16.03;44.67;98701.66;4413619;32;20026;-73
2022/02/21 08:16:20;;;;;;;;;;;;;;;16.65;43.76;98739.69;4410843;32;20412;-72
2022/02/21 08:18:46;;;;;;;;;;;;;;;17.62;42.29;98753.53;4404250;32;20009;-71
2022/02/21 08:21:12;;;;;;;;;;;;;;;16.18;44.00;98738.97;4408173;32;20358;-71
2022/02/21 08:23:37;;;;;;;;;;;;;;;16.86;42.93;98781.37;4409141;32;19971;-71
2022/02/21 08:26:03;;;;;;;;;;;;;;;17.53;41.94;98756.75;4411597;32;19997;-71
2022/02/21 08:28:28;;;;;;;;;;;;;;;17.54;41.94;98766.81;4406469;32;20407;-72
2022/02/21 08:30:54;;;;;;;;;;;;;;;17.14;41.99;98789.66;4408920;32;20155;-72
2022/02/21 08:33:20;;;;;;;;;;;;;;;17.09;42.08;98816.06;4399340;32;20012;-72
2022/02/21 08:35:45;;;;;;;;;;;;;;;18.37;40.50;98802.03;4408370;32;20009;-72
2022/02/21 08:38:11;;;;;;;;;;;;;;;17.78;41.15;98814.38;4411267;32;20288;-72
2022/02/21 08:40:38;;;;;;;;;;;;;;;17.50;41.54;98839.50;4406099;32;19971;-72
2022/02/21 08:43:04;;;;;;;;;;;;;;;16.76;43.96;98839.81;4407892;32;19962;-72
2022/02/21 08:45:29;;;;;;;;;;;;;;;17.01;43.32;98843.50;4409126;32;20405;-72
2022/02/21 08:47:55;;;;;;;;;;;;;;;17.68;42.28;98878.63;4410170;32;20574;-72
2022/02/21 08:50:21;;;;;;;;;;;;;;;17.27;42.55;98858.78;4410315;32;20001;-73
2022/02/21 08:52:47;;;;;;;;;;;;;;;17.22;42.59;98873.84;4407597;32;20421;-73
2022/02/21 08:55:15;;;;;;;;;;;;;;;17.71;41.98;98881.16;4408236;32;21195;-72
2022/02/21 08:57:41;;;;;;;;;;;;;;;17.50;41.54;98942.66;4409410;32;20462;-72
2022/02/21 09:00:08;;;;;;;;;;;;;;;17.80;40.85;98886.50;4408425;32;20017;-73
2022/02/21 09:02:34;;;;;;;;;;;;;;;17.58;42.01;98914.41;4408868;32;20045;-73
2022/02/21 09:04:59;;;;;;;;;;;;;;;17.79;41.78;98972.41;4406412;32;20028;-74
2022/02/21 09:07:25;;;;;;;;;;;;;;;17.53;42.74;98972.09;4407652;32;20314;-72
2022/02/21 09:09:50;;;;;;;;;;;;;;;17.54;42.97;98953.72;4408183;32;19994;-73
2022/02/21 09:12:16;;;;;;;;;;;;;;;17.43;43.32;98991.56;4410915;32;19965;-73
2022/02/21 09:14:47;;;;;;;;;;;;;;;17.15;43.63;99027.13;4408887;32;20053;-72
2022/02/21 09:17:13;;;;;;;;;;;;;;;18.29;42.35;99040.28;4407964;32;20028;-72
2022/02/21 09:19:39;;;;;;;;;;;;;;;17.12;43.79;99062.28;4409418;32;20020;-72
2022/02/21 09:22:05;;;;;;;;;;;;;;;17.98;42.79;99055.03;4411460;32;20637;-72
2022/02/21 09:24:31;;;;;;;;;;;;;;;17.83;42.66;99073.25;4408884;32;19961;-71
2022/02/21 09:26:56;;;;;;;;;;;;;;;18.96;41.38;99086.75;4412558;32;20002;-74
2022/02/21 09:29:24;;;;;;;;;;;;;;;17.87;42.66;99124.19;4411484;32;20533;-72
2022/02/21 09:31:50;;;;;;;;;;;;;;;18.68;42.08;99104.13;4411526;32;20185;-74
2022/02/21 09:34:16;;;;;;;;;;;;;;;18.01;43.16;99093.84;4412121;32;19965;-72
2022/02/21 09:36:42;;;;;;;;;;;;;;;17.64;42.95;99160.53;4413572;32;20292;-71
2022/02/21 09:39:08;;;;;;;;;;;;;;;17.64;43.41;99137.78;4413208;32;20330;-72
2022/02/21 09:41:34;;;;;;;;;;;;;;;18.66;41.66;99128.75;4414641;32;19972;-71
2022/02/21 09:43:59;;;;;;;;;;;;;;;18.18;41.97;99172.13;4412627;32;20015;-72
2022/02/21 09:46:28;;;;;;;;;;;;;;;17.41;42.34;99175.34;4411434;32;19999;-71
2022/02/21 09:48:54;;;;;;;;;;;;;;;18.43;41.08;99173.75;4409527;32;19958;-73
2022/02/21 09:51:20;;;;;;;;;;;;;;;19.32;39.64;99199.34;4411633;32;20011;-71
2022/02/21 09:53:46;;;;;;;;;;;;;;;18.86;39.58;99217.44;4413893;32;20827;-73
2022/02/21 09:56:12;;;;;;;;;;;;;;;19.43;38.79;99213.50;4412847;32;20010;-71
2022/02/21 09:58:37;;;;;;;;;;;;;;;19.06;39.18;99233.31;4411071;32;19997;-70
2022/02/21 10:01:03;;;;;;;;;;;;;;;19.51;38.01;99262.94;4402700;32;20401;-71
2022/02/21 10:08:51;;;;;;;;;;;;;;;19.46;38.14;99320.84;3946858;32;15727447;-71
2022/02/21 10:11:25;;;;;;;;;;;;;;;20.01;37.38;99299.47;4425544;32;19980;-71
2022/02/21 10:13:52;;;;;;;;;;;;;;;19.62;36.63;99302.78;4429536;32;19969;-70
2022/02/21 10:16:18;;;;;;;;;;;;;;;19.84;36.74;99305.38;4426768;32;20316;-71
2022/02/21 10:18:43;;;;;;;;;;;;;;;20.45;36.29;99336.06;4425946;32;20068;-71
2022/02/21 10:21:10;;;;;;;;;;;;;;;20.37;35.93;99375.91;4422735;32;20392;-71
2022/02/21 10:23:36;;;;;;;;;;;;;;;19.60;36.53;99360.41;4425498;32;19982;-71
2022/02/21 10:26:03;;;;;;;;;;;;;;;20.16;36.19;99359.81;4412514;32;20419;-71
2022/02/21 10:28:30;;;;;;;;;;;;;;;20.60;35.67;99384.97;4426885;32;19996;-72
2022/02/21 10:31:16;;;;;;;;;;;;;;;20.60;35.16;99408.63;4425247;32;20314;-72
2022/02/21 10:33:57;;;;;;;;;;;;;;;20.71;34.92;99416.28;4424922;32;20540;-71
2022/02/21 10:36:26;;;;;;;;;;;;;;;21.06;33.97;99436.87;4422958;32;20013;-71
2022/02/21 10:38:52;;;;;;;;;;;;;;;20.89;34.35;99461.25;4412005;32;20352;-72
2022/02/21 10:41:17;;;;;;;;;;;;;;;20.65;34.56;99461.31;4425503;32;19981;-72
2022/02/21 10:43:43;;;;;;;;;;;;;;;21.13;33.70;99464.84;4429472;32;19987;-72
2022/02/21 10:46:13;;;;;;;;;;;;;;;21.64;33.13;99480.69;4425711;32;19964;-72
2022/02/21 10:48:43;;;;;;;;;;;;;;;21.47;32.73;99488.00;4427646;32;19954;-72
2022/02/21 10:51:09;;;;;;;;;;;;;;;21.76;31.95;99494.88;4422917;32;20040;-71
2022/02/21 10:53:37;;;;;;;;;;;;;;;20.97;33.14;99511.59;4427191;32;20046;-72
2022/02/21 10:56:04;;;;;;;;;;;;;;;21.04;32.30;99538.81;4424980;32;19984;-72
2022/02/21 10:58:30;;;;;;;;;;;;;;;21.69;31.39;99533.47;4425379;32;20078;-72
2022/02/21 11:00:56;;;;;;;;;;;;;;;21.37;31.96;99527.72;4425421;32;20032;-72
2022/02/21 11:03:23;;;;;;;;;;;;;;;21.17;32.32;99539.69;4424419;32;20004;-72
2022/02/21 11:05:49;;;;;;;;;;;;;;;21.16;32.35;99531.62;4425709;32;19997;-72
2022/02/21 11:08:16;;;;;;;;;;;;;;;21.97;31.45;99553.88;4410663;32;20042;-72
2022/02/21 11:10:43;;;;;;;;;;;;;;;22.39;30.78;99560.69;4425488;32;20032;-72
2022/02/21 11:13:12;;;;;;;;;;;;;;;22.40;31.32;99574.50;4424544;32;20560;-72
2022/02/21 11:15:39;;;;;;;;;;;;;;;22.60;30.36;99588.25;4426832;32;19968;-72
2022/02/21 11:18:05;;;;;;;;;;;;;;;22.23;30.95;99593.31;4423216;32;19954;-72
2022/02/21 11:20:31;;;;;;;;;;;;;;;21.85;31.69;99606.16;4415439;32;20001;-72
2022/02/21 11:22:57;;;;;;;;;;;;;;;22.58;30.89;99619.56;4416000;32;19993;-71
2022/02/21 11:25:29;;;;;;;;;;;;;;;22.31;30.26;99620.78;4401969;32;20089;-73
2022/02/21 11:30:38;;;;;;;;;;;;;;;22.76;29.97;99633.03;3946867;32;15723667;-73
2022/02/21 11:35:59;;;;;;;;;;;;;;;22.47;30.03;99650.50;3951515;32;15726512;-72
2022/02/21 11:38:27;;;;;;;;;;;;;;;21.54;31.05;99668.50;4428666;32;20592;-72
2022/02/21 11:46:08;;;;;;;;;;;;;;;21.64;31.30;99689.69;3946853;32;15720966;-72
2022/02/21 11:48:54;;;;;;;;;;;;;;;21.37;31.66;99719.47;4415561;32;20001;-72
2022/02/21 12:04:54;;;;;;;;;;;;;;;21.82;31.61;99739.00;3942243;32;15726530;-72
2022/02/21 12:15:27;;;;;;;;;;;;;;;22.86;30.27;99782.59;3945682;32;15723663;-71
2022/02/21 12:18:01;;;;;;;;;;;;;;;22.86;30.27;99782.59;4431092;32;20680;-71
2022/02/21 12:28:37;;;;;;;;;;;;;;;22.42;31.37;99849.16;3945555;32;15724211;-72
2022/02/21 12:31:03;;;;;;;;;;;;;;;22.42;31.37;99849.16;4420401;32;19984;-72
2022/02/21 12:36:07;;;;;;;;;;;;;;;22.95;30.51;99848.91;3948042;32;15723439;-71
2022/02/21 12:38:33;;;;;;;;;;;;;;;22.95;30.51;99848.91;4418745;32;20428;-72
2022/02/21 12:41:04;;;;;;;;;;;;;;;24.79;28.13;99862.16;4420220;32;20386;-73
2022/02/21 12:43:46;;;;;;;;;;;;;;;24.38;28.88;99880.03;4425232;32;20044;-72
2022/02/21 12:46:14;;;;;;;;;;;;;;;24.45;28.44;99879.34;4422430;32;19957;-73
2022/02/21 12:48:39;;;;;;;;;;;;;;;25.22;28.08;99883.34;4420258;32;20409;-72
2022/02/21 12:51:05;;;;;;;;;;;;;;;24.38;28.69;99899.38;4420096;32;20015;-72
2022/02/21 12:53:31;;;;;;;;;;;;;;;22.94;31.46;99898.25;4419793;32;19996;-71
2022/02/21 12:55:59;;;;;;;;;;;;;;;21.99;33.03;99934.38;4420834;32;20057;-71
2022/02/21 12:58:39;;;;;;;;;;;;;;;20.66;35.43;99911.69;4422109;32;20049;-71
2022/02/21 13:01:11;;;;;;;;;;;;;;;20.83;35.52;99943.84;4417383;32;20048;-73
2022/02/21 13:03:37;;;;;;;;;;;;;;;20.82;35.25;99931.59;4419296;32;20001;-71
2022/02/21 13:06:03;;;;;;;;;;;;;;;20.86;34.99;99951.34;4417548;32;20034;-71
2022/02/21 13:08:37;;;;;;;;;;;;;;;21.45;34.27;99955.13;4420849;32;20000;-71
2022/02/21 13:11:02;;;;;;;;;;;;;;;21.18;34.90;99943.88;4421866;32;20003;-72
2022/02/21 13:13:28;;;;;;;;;;;;;;;21.38;34.42;99937.75;4420528;32;20432;-71
2022/02/21 13:15:54;;;;;;;;;;;;;;;21.40;34.68;99955.97;4418735;32;19997;-72
2022/02/21 13:18:20;;;;;;;;;;;;;;;21.83;33.55;99975.41;4416880;32;20453;-72
2022/02/21 13:20:45;;;;;;;;;;;;;;;22.43;32.08;99974.75;4419569;32;19957;-73
2022/02/21 13:23:12;;;;;;;;;;;;;;;22.31;32.43;99975.44;4419810;32;20585;-71
2022/02/21 13:25:38;;;;;;;;;;;;;;;22.65;31.83;99976.63;4421932;32;19969;-71
2022/02/21 13:28:19;;;;;;;;;;;;;;;23.16;31.22;99973.31;4422577;32;20416;-72
2022/02/21 13:30:44;;;;;;;;;;;;;;;22.47;31.82;99994.53;4417657;32;19999;-72